createdAt,value
2018-06-15T00:00:20.949Z,17.09
2018-06-15T00:01:20.839Z,17.07
2018-06-15T00:03:14.089Z,17.10
2018-06-15T00:04:13.993Z,17.09
2018-06-15T00:06:06.836Z,17.13
2018-06-15T00:07:06.815Z,17.09
2018-06-15T00:09:00.575Z,17.09
2018-06-15T00:10:00.447Z,17.12
2018-06-15T00:11:54.698Z,17.12
2018-06-15T00:12:54.601Z,17.12
2018-06-15T00:14:47.441Z,17.17
2018-06-15T00:15:47.331Z,17.16
2018-06-15T00:17:40.240Z,17.16
2018-06-15T00:18:40.094Z,17.09
2018-06-15T00:20:32.925Z,17.27
2018-06-15T00:21:32.862Z,17.27
2018-06-15T00:23:25.693Z,17.19
2018-06-15T00:24:25.589Z,17.14
2018-06-15T00:26:19.376Z,17.27
2018-06-15T00:27:19.310Z,17.16
2018-06-15T00:29:12.358Z,17.24
2018-06-15T00:30:12.016Z,17.14
2018-06-15T00:32:05.420Z,17.14
2018-06-15T00:33:04.759Z,17.14
2018-06-15T00:34:57.619Z,17.13
2018-06-15T00:35:57.503Z,17.16
2018-06-15T00:37:50.269Z,17.10
2018-06-15T00:38:50.153Z,17.17
2018-06-15T00:40:43.013Z,17.17
2018-06-15T00:41:42.893Z,17.14
2018-06-15T00:43:35.639Z,17.09
2018-06-15T00:44:35.545Z,17.10
2018-06-15T00:46:28.407Z,17.17
2018-06-15T00:47:28.295Z,17.16
2018-06-15T00:49:21.132Z,17.14
2018-06-15T00:50:21.050Z,17.13
2018-06-15T00:52:13.813Z,17.14
2018-06-15T00:53:13.703Z,17.14
2018-06-15T00:55:06.533Z,17.12
2018-06-15T00:56:06.443Z,17.14
2018-06-15T00:57:59.308Z,17.09
2018-06-15T00:58:59.188Z,17.14
2018-06-15T01:00:51.932Z,17.30
2018-06-15T01:01:51.840Z,17.14
2018-06-15T01:03:44.707Z,17.25
2018-06-15T01:04:44.602Z,17.19
2018-06-15T01:06:40.453Z,17.25
2018-06-15T01:07:40.306Z,17.25
2018-06-15T01:09:33.217Z,17.25
2018-06-15T01:10:33.101Z,17.22
2018-06-15T01:12:26.740Z,17.20
2018-06-15T01:13:26.665Z,17.20
2018-06-15T01:15:19.479Z,17.16
2018-06-15T01:16:19.513Z,17.13
2018-06-15T01:18:12.281Z,17.12
2018-06-15T01:19:12.261Z,17.10
2018-06-15T01:21:05.010Z,17.24
2018-06-15T01:22:04.872Z,17.14
2018-06-15T01:23:57.750Z,17.22
2018-06-15T01:24:57.633Z,17.22
2018-06-15T01:26:50.483Z,17.14
2018-06-15T01:27:50.368Z,17.12
2018-06-15T01:29:43.209Z,17.12
2018-06-15T01:30:43.125Z,17.09
2018-06-15T01:32:35.880Z,17.07
2018-06-15T01:33:35.778Z,17.14
2018-06-15T01:35:28.611Z,17.07
2018-06-15T01:36:28.514Z,17.07
2018-06-15T01:38:21.381Z,17.12
2018-06-15T01:39:21.287Z,17.07
2018-06-15T01:41:14.142Z,17.12
2018-06-15T01:42:14.030Z,17.09
2018-06-15T01:44:06.899Z,17.04
2018-06-15T01:45:06.769Z,17.13
2018-06-15T01:46:59.632Z,17.16
2018-06-15T01:47:59.514Z,17.16
2018-06-15T01:49:52.369Z,17.09
2018-06-15T01:50:52.288Z,17.07
2018-06-15T01:52:45.119Z,17.06
2018-06-15T01:53:45.051Z,17.09
2018-06-15T01:55:37.865Z,17.07
2018-06-15T01:56:37.769Z,17.06
2018-06-15T01:58:30.531Z,16.98
2018-06-15T01:59:30.416Z,16.98
2018-06-15T02:01:23.253Z,17.09
2018-06-15T02:02:23.061Z,17.10
2018-06-15T02:04:15.907Z,17.09
2018-06-15T02:05:15.809Z,17.09
2018-06-15T02:07:08.676Z,17.02
2018-06-15T02:08:08.584Z,17.09
2018-06-15T02:10:01.579Z,17.12
2018-06-15T02:11:01.333Z,17.09
2018-06-15T02:12:54.159Z,17.09
2018-06-15T02:13:54.071Z,17.14
2018-06-15T02:15:47.463Z,17.06
2018-06-15T02:16:46.815Z,17.09
2018-06-15T02:18:39.675Z,16.97
2018-06-15T02:19:39.579Z,17.07
2018-06-15T02:21:32.842Z,17.06
2018-06-15T02:22:32.711Z,17.06
2018-06-15T02:24:25.588Z,17.06
2018-06-15T02:25:25.474Z,17.06
2018-06-15T02:27:18.324Z,17.04
2018-06-15T02:28:18.232Z,17.12
2018-06-15T02:30:11.101Z,17.09
2018-06-15T02:31:10.965Z,17.12
2018-06-15T02:33:03.828Z,17.13
2018-06-15T02:34:03.719Z,16.98
2018-06-15T02:35:56.585Z,17.06
2018-06-15T02:36:56.501Z,17.04
2018-06-15T02:38:49.331Z,17.16
2018-06-15T02:39:49.216Z,17.04
2018-06-15T02:41:42.079Z,17.13
2018-06-15T02:42:41.962Z,17.07
2018-06-15T02:44:34.704Z,17.10
2018-06-15T02:45:34.667Z,17.04
2018-06-15T02:47:27.484Z,17.12
2018-06-15T02:48:27.364Z,17.16
2018-06-15T02:50:20.097Z,17.01
2018-06-15T02:51:20.016Z,17.02
2018-06-15T02:53:13.398Z,16.97
2018-06-15T02:54:12.763Z,17.07
2018-06-15T02:56:05.613Z,16.98
2018-06-15T02:57:05.503Z,17.06
2018-06-15T02:58:58.397Z,16.99
2018-06-15T02:59:58.255Z,17.02
2018-06-15T03:01:51.110Z,16.99
2018-06-15T03:02:51.005Z,17.07
2018-06-15T03:04:44.366Z,17.04
2018-06-15T03:05:43.749Z,17.01
2018-06-15T03:07:36.609Z,17.01
2018-06-15T03:08:36.511Z,17.06
2018-06-15T03:10:29.379Z,17.12
2018-06-15T03:11:29.279Z,17.02
2018-06-15T03:13:22.114Z,17.04
2018-06-15T03:14:22.015Z,17.02
2018-06-15T03:16:14.859Z,17.07
2018-06-15T03:17:14.774Z,16.95
2018-06-15T03:19:07.618Z,16.98
2018-06-15T03:20:07.504Z,16.95
2018-06-15T03:22:00.350Z,16.97
2018-06-15T03:23:00.276Z,16.87
2018-06-15T03:24:53.107Z,16.90
2018-06-15T03:25:52.999Z,16.82
2018-06-15T03:27:45.902Z,16.64
2018-06-15T03:28:45.748Z,16.65
2018-06-15T03:30:38.631Z,16.46
2018-06-15T03:31:38.502Z,16.40
2018-06-15T03:33:31.367Z,16.28
2018-06-15T03:34:31.263Z,16.34
2018-06-15T03:36:24.133Z,16.28
2018-06-15T03:37:24.009Z,16.10
2018-06-15T03:39:16.866Z,16.10
2018-06-15T03:40:16.745Z,15.99
2018-06-15T03:42:09.495Z,16.16
2018-06-15T03:43:09.405Z,16.10
2018-06-15T03:45:02.147Z,16.17
2018-06-15T03:46:02.059Z,15.96
2018-06-15T03:47:54.947Z,15.88
2018-06-15T03:48:54.692Z,15.93
2018-06-15T03:50:47.556Z,16.02
2018-06-15T03:51:47.340Z,15.98
2018-06-15T03:53:40.090Z,16.08
2018-06-15T03:54:39.989Z,16.00
2018-06-15T03:56:32.845Z,15.98
2018-06-15T03:57:32.733Z,16.13
2018-06-15T03:59:26.039Z,15.96
2018-06-15T04:00:25.912Z,16.03
2018-06-15T04:02:18.801Z,15.91
2018-06-15T04:03:18.639Z,15.91
2018-06-15T04:05:11.406Z,15.88
2018-06-15T04:06:11.290Z,15.91
2018-06-15T04:08:04.154Z,16.08
2018-06-15T04:09:04.053Z,16.13
2018-06-15T04:10:56.893Z,16.06
2018-06-15T04:11:56.783Z,16.09
2018-06-15T04:13:49.642Z,16.17
2018-06-15T04:14:49.541Z,16.25
2018-06-15T04:16:42.811Z,16.05
2018-06-15T04:17:42.835Z,16.17
2018-06-15T04:19:35.555Z,16.22
2018-06-15T04:20:35.447Z,16.13
2018-06-15T04:22:28.326Z,16.17
2018-06-15T04:23:28.101Z,16.13
2018-06-15T04:25:20.852Z,16.14
2018-06-15T04:26:20.744Z,16.21
2018-06-15T04:28:13.603Z,16.36
2018-06-15T04:29:13.492Z,16.34
2018-06-15T04:31:06.238Z,16.42
2018-06-15T04:32:06.152Z,16.40
2018-06-15T04:33:59.425Z,16.32
2018-06-15T04:34:59.320Z,16.21
2018-06-15T04:36:52.668Z,16.33
2018-06-15T04:37:52.565Z,16.26
2018-06-15T04:39:45.409Z,16.18
2018-06-15T04:40:45.312Z,16.17
2018-06-15T04:42:38.079Z,16.21
2018-06-15T04:43:37.975Z,16.21
2018-06-15T04:45:30.799Z,16.33
2018-06-15T04:46:30.699Z,16.40
2018-06-15T04:48:23.561Z,16.39
2018-06-15T04:49:23.446Z,16.42
2018-06-15T04:51:16.199Z,16.46
2018-06-15T04:52:16.101Z,16.49
2018-06-15T04:54:08.870Z,16.47
2018-06-15T04:55:08.833Z,16.54
2018-06-15T04:57:02.536Z,16.55
2018-06-15T04:58:02.423Z,16.51
2018-06-15T04:59:55.301Z,16.36
2018-06-15T05:00:55.172Z,16.37
2018-06-15T05:02:48.027Z,16.36
2018-06-15T05:03:47.922Z,16.36
2018-06-15T05:05:40.784Z,16.37
2018-06-15T05:06:40.682Z,16.39
2018-06-15T05:08:33.536Z,16.55
2018-06-15T05:09:33.426Z,16.61
2018-06-15T05:11:26.287Z,16.69
2018-06-15T05:12:26.167Z,16.70
2018-06-15T05:14:18.912Z,16.70
2018-06-15T05:15:18.828Z,16.61
2018-06-15T05:17:11.670Z,16.69
2018-06-15T05:18:12.080Z,16.67
2018-06-15T05:20:04.229Z,16.65
2018-06-15T05:21:04.115Z,16.57
2018-06-15T05:22:56.953Z,16.61
2018-06-15T05:23:56.853Z,16.57
2018-06-15T05:25:49.632Z,16.47
2018-06-15T05:26:49.515Z,16.49
2018-06-15T05:28:42.780Z,16.42
2018-06-15T05:29:42.663Z,16.47
2018-06-15T05:31:35.528Z,16.59
2018-06-15T05:32:35.414Z,16.55
2018-06-15T05:34:28.171Z,16.73
2018-06-15T05:35:28.081Z,16.69
2018-06-15T05:37:20.826Z,16.70
2018-06-15T05:38:20.714Z,16.69
2018-06-15T05:40:13.593Z,16.79
2018-06-15T05:41:13.489Z,16.74
2018-06-15T05:43:06.325Z,16.74
2018-06-15T05:44:06.221Z,16.80
2018-06-15T05:45:59.106Z,16.74
2018-06-15T05:46:58.979Z,16.74
2018-06-15T05:48:51.827Z,16.82
2018-06-15T05:49:51.738Z,16.80
2018-06-15T05:51:45.514Z,16.91
2018-06-15T05:52:45.518Z,16.94
2018-06-15T05:54:38.241Z,16.97
2018-06-15T05:55:38.151Z,17.02
2018-06-15T05:57:30.897Z,17.02
2018-06-15T05:58:30.779Z,17.12
2018-06-15T06:00:24.571Z,17.17
2018-06-15T06:01:24.456Z,17.02
2018-06-15T06:03:17.812Z,17.09
2018-06-15T06:04:17.632Z,17.01
2018-06-15T06:06:10.506Z,16.97
2018-06-15T06:07:10.360Z,16.98
2018-06-15T06:09:03.202Z,16.95
2018-06-15T06:10:03.106Z,16.87
2018-06-15T06:11:55.882Z,16.77
2018-06-15T06:12:55.757Z,16.74
2018-06-15T06:14:48.631Z,16.57
2018-06-15T06:15:48.500Z,16.59
2018-06-15T06:17:41.377Z,16.43
2018-06-15T06:18:41.277Z,16.34
2018-06-15T06:20:34.139Z,16.39
2018-06-15T06:21:34.005Z,16.33
2018-06-15T06:23:27.298Z,16.42
2018-06-15T06:24:27.156Z,16.42
2018-06-15T06:26:19.948Z,16.39
2018-06-15T06:27:19.811Z,16.40
2018-06-15T06:29:12.554Z,16.34
2018-06-15T06:30:12.476Z,16.40
2018-06-15T06:32:05.323Z,16.44
2018-06-15T06:33:05.216Z,16.51
2018-06-15T06:34:58.056Z,16.62
2018-06-15T06:35:57.851Z,16.58
2018-06-15T06:37:50.636Z,16.62
2018-06-15T06:38:50.500Z,16.58
2018-06-15T06:40:43.362Z,16.54
2018-06-15T06:41:43.274Z,16.47
2018-06-15T06:43:36.137Z,16.33
2018-06-15T06:44:36.044Z,16.39
2018-06-15T06:46:28.847Z,16.22
2018-06-15T06:47:28.751Z,16.29
2018-06-15T06:49:22.106Z,16.18
2018-06-15T06:50:21.497Z,16.18
2018-06-15T06:52:14.353Z,16.09
2018-06-15T06:53:14.247Z,16.13
2018-06-15T06:55:07.096Z,16.14
2018-06-15T06:56:07.015Z,16.10
2018-06-15T06:57:59.766Z,16.06
2018-06-15T06:58:59.653Z,16.14
2018-06-15T07:00:52.388Z,16.10
2018-06-15T07:01:52.292Z,15.99
2018-06-15T07:03:45.164Z,16.02
2018-06-15T07:04:45.045Z,16.00
2018-06-15T07:06:38.290Z,16.02
2018-06-15T07:07:38.198Z,16.10
2018-06-15T07:09:31.085Z,16.14
2018-06-15T07:10:30.949Z,16.10
2018-06-15T07:12:23.711Z,16.06
2018-06-15T07:13:23.594Z,16.06
2018-06-15T07:15:16.352Z,15.96
2018-06-15T07:16:16.241Z,15.88
2018-06-15T07:18:08.995Z,16.02
2018-06-15T07:19:08.893Z,16.13
2018-06-15T07:21:01.756Z,16.10
2018-06-15T07:22:01.551Z,16.14
2018-06-15T07:23:54.291Z,16.14
2018-06-15T07:24:54.187Z,16.13
2018-06-15T07:26:46.974Z,16.13
2018-06-15T07:27:46.850Z,16.24
2018-06-15T07:29:39.699Z,16.24
2018-06-15T07:30:39.594Z,16.24
2018-06-15T07:32:32.441Z,16.18
2018-06-15T07:33:32.368Z,16.24
2018-06-15T07:35:25.216Z,16.21
2018-06-15T07:36:25.096Z,16.29
2018-06-15T07:38:17.822Z,16.24
2018-06-15T07:39:17.721Z,16.14
2018-06-15T07:41:10.489Z,16.24
2018-06-15T07:42:10.368Z,16.26
2018-06-15T07:44:03.634Z,16.21
2018-06-15T07:45:03.542Z,16.36
2018-06-15T07:46:56.426Z,16.37
2018-06-15T07:47:56.321Z,16.39
2018-06-15T07:49:49.042Z,16.49
2018-06-15T07:50:48.944Z,16.44
2018-06-15T07:52:41.778Z,16.44
2018-06-15T07:53:41.675Z,16.46
2018-06-15T07:55:34.548Z,16.43
2018-06-15T07:56:34.434Z,16.46
2018-06-15T07:58:27.287Z,16.51
2018-06-15T07:59:27.255Z,16.55
2018-06-15T08:01:19.930Z,16.69
2018-06-15T08:02:19.834Z,16.65
2018-06-15T08:04:12.582Z,16.74
2018-06-15T08:05:12.486Z,16.77
2018-06-15T08:07:05.346Z,16.82
2018-06-15T08:08:05.223Z,16.84
2018-06-15T08:09:58.082Z,17.02
2018-06-15T08:10:57.985Z,16.97
2018-06-15T08:12:50.837Z,17.14
2018-06-15T08:13:50.621Z,17.27
2018-06-15T08:15:43.378Z,17.62
2018-06-15T08:16:43.267Z,17.69
2018-06-15T08:18:36.125Z,18.09
2018-06-15T08:19:36.010Z,18.18
2018-06-15T08:21:28.777Z,18.46
2018-06-15T08:22:28.684Z,18.49
2018-06-15T08:24:22.061Z,18.58
2018-06-15T08:25:21.922Z,18.61
2018-06-15T08:27:14.768Z,18.56
2018-06-15T08:28:14.671Z,18.64
2018-06-15T08:30:07.540Z,18.66
2018-06-15T08:31:07.441Z,18.61
2018-06-15T08:33:00.261Z,18.34
2018-06-15T08:34:00.200Z,18.28
2018-06-15T08:35:53.062Z,18.33
2018-06-15T08:36:52.824Z,18.46
2018-06-15T08:38:45.663Z,18.66
2018-06-15T08:39:45.570Z,18.41
2018-06-15T08:41:38.335Z,18.28
2018-06-15T08:42:38.224Z,18.21
2018-06-15T08:44:31.080Z,18.11
2018-06-15T08:45:30.972Z,18.09
2018-06-15T08:47:23.853Z,18.18
2018-06-15T08:48:23.734Z,18.28
2018-06-15T08:50:16.582Z,18.30
2018-06-15T08:51:16.461Z,18.27
2018-06-15T08:53:09.321Z,18.34
2018-06-15T08:54:09.287Z,18.33
2018-06-15T08:56:02.073Z,18.39
2018-06-15T08:57:01.964Z,18.36
2018-06-15T08:58:54.809Z,18.17
2018-06-15T08:59:54.718Z,18.31
2018-06-15T09:01:47.486Z,18.45
2018-06-15T09:02:47.361Z,18.43
2018-06-15T09:04:40.231Z,18.66
2018-06-15T09:05:40.156Z,18.64
2018-06-15T09:07:32.967Z,18.49
2018-06-15T09:08:32.862Z,18.46
2018-06-15T09:10:25.708Z,18.42
2018-06-15T09:11:25.622Z,18.38
2018-06-15T09:13:18.482Z,18.54
2018-06-15T09:14:18.363Z,18.67
2018-06-15T09:16:11.221Z,18.61
2018-06-15T09:17:11.038Z,18.54
2018-06-15T09:19:03.891Z,18.66
2018-06-15T09:20:03.765Z,18.63
2018-06-15T09:21:56.606Z,18.76
2018-06-15T09:22:56.504Z,18.88
2018-06-15T09:24:49.767Z,18.93
2018-06-15T09:25:49.670Z,18.93
2018-06-15T09:27:42.509Z,18.98
2018-06-15T09:28:42.411Z,19.05
2018-06-15T09:30:35.280Z,19.01
2018-06-15T09:31:35.176Z,19.08
2018-06-15T09:33:28.023Z,19.19
2018-06-15T09:34:27.915Z,19.26
2018-06-15T09:36:20.781Z,19.20
2018-06-15T09:37:20.663Z,19.26
2018-06-15T09:39:13.404Z,19.39
2018-06-15T09:40:13.327Z,19.56
2018-06-15T09:42:06.185Z,19.50
2018-06-15T09:43:06.082Z,19.59
2018-06-15T09:44:58.928Z,19.68
2018-06-15T09:45:58.833Z,19.67
2018-06-15T09:47:51.653Z,19.77
2018-06-15T09:48:51.559Z,19.72
2018-06-15T09:50:44.423Z,19.92
2018-06-15T09:51:44.326Z,19.92
2018-06-15T09:53:37.197Z,20.00
2018-06-15T09:54:37.058Z,19.97
2018-06-15T09:56:29.936Z,20.18
2018-06-15T09:57:29.812Z,20.22
2018-06-15T09:59:22.657Z,20.32
2018-06-15T10:00:22.560Z,20.41
2018-06-15T10:02:15.421Z,20.56
2018-06-15T10:03:15.316Z,20.65
2018-06-15T10:05:08.150Z,20.55
2018-06-15T10:06:08.093Z,20.68
2018-06-15T10:08:00.925Z,20.83
2018-06-15T10:09:00.818Z,20.88
2018-06-15T10:10:54.093Z,21.10
2018-06-15T10:11:53.978Z,21.14
2018-06-15T10:13:46.827Z,21.10
2018-06-15T10:14:46.716Z,21.16
2018-06-15T10:16:39.608Z,21.25
2018-06-15T10:17:39.468Z,21.05
2018-06-15T10:19:32.338Z,20.75
2018-06-15T10:20:32.251Z,20.86
2018-06-15T10:22:25.094Z,21.07
2018-06-15T10:23:24.973Z,21.13
2018-06-15T10:25:17.804Z,21.37
2018-06-15T10:26:17.717Z,21.23
2018-06-15T10:28:10.571Z,20.90
2018-06-15T10:29:10.463Z,20.90
2018-06-15T10:31:03.307Z,21.14
2018-06-15T10:32:03.242Z,21.19
2018-06-15T10:33:56.091Z,21.32
2018-06-15T10:34:55.971Z,21.55
2018-06-15T10:36:48.828Z,21.75
2018-06-15T10:37:48.711Z,21.77
2018-06-15T10:39:41.577Z,21.63
2018-06-15T10:40:41.475Z,21.22
2018-06-15T10:42:34.302Z,20.74
2018-06-15T10:43:34.226Z,20.63
2018-06-15T10:45:27.083Z,20.58
2018-06-15T10:46:27.010Z,20.70
2018-06-15T10:48:19.854Z,20.73
2018-06-15T10:49:19.759Z,20.75
2018-06-15T10:51:12.577Z,20.90
2018-06-15T10:52:12.470Z,21.04
2018-06-15T10:54:05.320Z,21.16
2018-06-15T10:55:05.234Z,21.35
2018-06-15T10:56:58.121Z,21.78
2018-06-15T10:57:57.992Z,21.97
2018-06-15T10:59:51.357Z,21.98
2018-06-15T11:00:51.227Z,22.07
2018-06-15T11:02:44.070Z,22.27
2018-06-15T11:03:43.974Z,22.37
2018-06-15T11:05:36.823Z,22.48
2018-06-15T11:06:36.733Z,22.61
2018-06-15T11:08:29.576Z,22.74
2018-06-15T11:09:29.482Z,22.66
2018-06-15T11:11:22.316Z,22.37
2018-06-15T11:12:22.227Z,22.21
2018-06-15T11:14:15.102Z,22.22
2018-06-15T11:15:14.970Z,22.06
2018-06-15T11:17:07.815Z,22.19
2018-06-15T11:18:07.746Z,22.15
2018-06-15T11:20:02.015Z,22.19
2018-06-15T11:21:01.916Z,22.21
2018-06-15T11:22:54.767Z,21.94
2018-06-15T11:23:54.661Z,21.98
2018-06-15T11:25:47.498Z,22.30
2018-06-15T11:26:47.411Z,22.59
2018-06-15T11:28:40.270Z,22.66
2018-06-15T11:29:40.241Z,22.67
2018-06-15T11:31:33.008Z,22.81
2018-06-15T11:32:32.905Z,22.88
2018-06-15T11:34:25.764Z,23.07
2018-06-15T11:35:25.658Z,23.13
2018-06-15T11:37:18.509Z,23.17
2018-06-15T11:38:18.403Z,23.01
2018-06-15T11:40:11.267Z,22.93
2018-06-15T11:41:11.220Z,22.95
2018-06-15T11:43:04.158Z,23.06
2018-06-15T11:44:03.915Z,23.10
2018-06-15T11:45:57.175Z,23.15
2018-06-15T11:46:57.128Z,23.33
2018-06-15T11:48:50.080Z,23.37
2018-06-15T11:49:49.925Z,23.37
2018-06-15T11:51:42.809Z,23.17
2018-06-15T11:52:42.682Z,23.13
2018-06-15T11:54:35.504Z,23.11
2018-06-15T11:55:35.451Z,23.31
2018-06-15T11:57:28.329Z,23.52
2018-06-15T11:58:28.184Z,23.74
2018-06-15T12:00:21.034Z,23.96
2018-06-15T12:01:20.934Z,23.92
2018-06-15T12:03:13.755Z,23.92
2018-06-15T12:04:13.682Z,24.01
2018-06-15T12:06:06.524Z,24.25
2018-06-15T12:07:06.647Z,24.36
2018-06-15T12:08:59.280Z,24.70
2018-06-15T12:09:59.171Z,24.52
2018-06-15T12:11:52.045Z,24.13
2018-06-15T12:12:51.927Z,23.71
2018-06-15T12:14:44.904Z,23.44
2018-06-15T12:15:44.689Z,23.61
2018-06-15T12:17:37.529Z,23.97
2018-06-15T12:18:37.426Z,23.97
2018-06-15T12:20:30.303Z,23.82
2018-06-15T12:21:30.203Z,23.44
2018-06-15T12:23:23.025Z,23.14
2018-06-15T12:24:22.915Z,22.85
2018-06-15T12:26:15.817Z,22.71
2018-06-15T12:27:15.672Z,22.80
2018-06-15T12:29:08.514Z,22.71
2018-06-15T12:30:08.413Z,22.81
2018-06-15T12:32:01.284Z,22.99
2018-06-15T12:33:01.173Z,22.77
2018-06-15T12:34:54.080Z,23.22
2018-06-15T12:35:53.944Z,23.69
2018-06-15T12:37:46.779Z,24.33
2018-06-15T12:38:46.668Z,24.66
2018-06-15T12:40:39.530Z,24.51
2018-06-15T12:41:39.447Z,24.68
2018-06-15T12:43:32.269Z,24.82
2018-06-15T12:44:32.317Z,24.81
2018-06-15T12:46:24.995Z,24.28
2018-06-15T12:47:24.915Z,24.22
2018-06-15T12:49:17.762Z,23.92
2018-06-15T12:50:17.664Z,23.86
2018-06-15T12:52:10.487Z,23.74
2018-06-15T12:53:10.409Z,23.89
2018-06-15T12:55:03.265Z,23.74
2018-06-15T12:56:03.168Z,23.71
2018-06-15T12:57:56.013Z,23.67
2018-06-15T12:58:55.925Z,23.82
2018-06-15T13:00:48.768Z,23.82
2018-06-15T13:01:48.669Z,23.89
2018-06-15T13:03:41.936Z,23.55
2018-06-15T13:04:41.831Z,23.74
2018-06-15T13:06:34.670Z,23.41
2018-06-15T13:07:34.577Z,23.21
2018-06-15T13:09:27.828Z,23.21
2018-06-15T13:10:27.740Z,23.14
2018-06-15T13:12:21.088Z,23.21
2018-06-15T13:13:21.001Z,22.98
2018-06-15T13:15:13.817Z,22.68
2018-06-15T13:16:13.741Z,22.48
2018-06-15T13:18:06.592Z,21.93
2018-06-15T13:19:06.484Z,21.67
2018-06-15T13:20:59.327Z,21.51
2018-06-15T13:21:59.237Z,21.43
2018-06-15T13:23:52.144Z,21.43
2018-06-15T13:24:52.029Z,21.35
2018-06-15T13:26:44.855Z,21.59
2018-06-15T13:27:44.740Z,21.81
2018-06-15T13:29:37.644Z,21.85
2018-06-15T13:30:37.498Z,22.00
2018-06-15T13:32:30.352Z,22.38
2018-06-15T13:33:30.244Z,22.52
2018-06-15T13:35:23.611Z,22.62
2018-06-15T13:36:22.991Z,22.58
2018-06-15T13:38:15.833Z,22.46
2018-06-15T13:39:15.751Z,22.59
2018-06-15T13:41:08.603Z,22.86
2018-06-15T13:42:08.488Z,22.83
2018-06-15T13:44:02.368Z,23.03
2018-06-15T13:45:03.112Z,23.01
2018-06-15T13:46:55.438Z,23.06
2018-06-15T13:47:55.999Z,22.83
2018-06-15T13:49:47.863Z,22.74
2018-06-15T13:50:49.110Z,22.70
2018-06-15T13:52:43.029Z,22.81
2018-06-15T13:53:42.169Z,23.04
2018-06-15T13:55:34.881Z,22.95
2018-06-15T13:56:34.801Z,22.88
2018-06-15T13:58:27.643Z,23.06
2018-06-15T13:59:27.532Z,23.34
2018-06-15T14:01:20.388Z,23.76
2018-06-15T14:02:20.279Z,23.89
2018-06-15T14:04:13.670Z,23.55
2018-06-15T14:05:13.036Z,23.23
2018-06-15T14:07:05.959Z,23.54
2018-06-15T14:08:05.779Z,23.86
2018-06-15T14:09:58.644Z,24.23
2018-06-15T14:10:58.561Z,24.28
2018-06-15T14:12:51.442Z,23.67
2018-06-15T14:13:51.307Z,23.52
2018-06-15T14:15:44.222Z,23.52
2018-06-15T14:16:44.027Z,23.79
2018-06-15T14:18:37.008Z,24.21
2018-06-15T14:19:36.812Z,24.11
2018-06-15T14:21:29.682Z,23.85
2018-06-15T14:22:29.552Z,23.55
2018-06-15T14:24:22.958Z,23.42
2018-06-15T14:25:22.811Z,23.67
2018-06-15T14:27:16.147Z,24.04
2018-06-15T14:28:16.090Z,24.08
2018-06-15T14:30:08.911Z,24.37
2018-06-15T14:31:08.872Z,24.47
2018-06-15T14:33:01.724Z,24.18
2018-06-15T14:34:01.576Z,24.29
2018-06-15T14:35:54.934Z,24.85
2018-06-15T14:36:54.319Z,24.75
2018-06-15T14:38:47.178Z,24.18
2018-06-15T14:39:47.068Z,23.89
2018-06-15T14:41:39.899Z,23.49
2018-06-15T14:42:39.832Z,23.39
2018-06-15T14:44:32.658Z,23.46
2018-06-15T14:45:32.565Z,23.46
2018-06-15T14:47:25.409Z,23.31
2018-06-15T14:48:25.324Z,23.29
2018-06-15T14:50:18.680Z,22.91
2018-06-15T14:51:18.570Z,22.59
2018-06-15T14:53:11.574Z,22.80
2018-06-15T14:54:11.314Z,23.04
2018-06-15T14:56:04.179Z,23.63
2018-06-15T14:57:04.072Z,23.60
2018-06-15T14:58:56.917Z,23.28
2018-06-15T14:59:56.826Z,23.14
2018-06-15T15:01:49.670Z,23.25
2018-06-15T15:02:49.582Z,23.39
2018-06-15T15:04:42.436Z,23.23
2018-06-15T15:05:42.321Z,23.13
2018-06-15T15:07:35.206Z,22.77
2018-06-15T15:08:35.075Z,22.86
2018-06-15T15:10:27.909Z,22.70
2018-06-15T15:11:27.818Z,22.85
2018-06-15T15:13:21.190Z,23.07
2018-06-15T15:14:20.574Z,23.28
2018-06-15T15:16:13.450Z,23.41
2018-06-15T15:17:13.326Z,23.60
2018-06-15T15:19:06.161Z,23.98
2018-06-15T15:20:06.081Z,24.16
2018-06-15T15:21:58.895Z,24.44
2018-06-15T15:22:58.833Z,24.74
2018-06-15T15:24:51.717Z,24.94
2018-06-15T15:25:51.583Z,25.11
2018-06-15T15:27:44.409Z,25.22
2018-06-15T15:28:44.387Z,25.12
2018-06-15T15:30:37.353Z,25.23
2018-06-15T15:31:37.091Z,25.19
2018-06-15T15:33:29.970Z,24.99
2018-06-15T15:34:29.843Z,24.58
2018-06-15T15:36:23.206Z,24.97
2018-06-15T15:37:23.592Z,25.18
2018-06-15T15:39:15.948Z,24.66
2018-06-15T15:40:15.852Z,24.37
2018-06-15T15:42:08.694Z,23.82
2018-06-15T15:43:08.588Z,23.67
2018-06-15T15:45:01.471Z,23.66
2018-06-15T15:46:01.345Z,23.71
2018-06-15T15:47:54.178Z,23.73
2018-06-15T15:48:54.072Z,23.60
2018-06-15T15:50:46.919Z,23.54
2018-06-15T15:51:46.823Z,23.63
2018-06-15T15:53:39.682Z,23.52
2018-06-15T15:54:39.570Z,23.59
2018-06-15T15:56:32.438Z,23.46
2018-06-15T15:57:32.315Z,23.44
2018-06-15T15:59:25.169Z,23.54
2018-06-15T16:00:25.066Z,23.59
2018-06-15T16:02:18.832Z,23.54
2018-06-15T16:03:18.735Z,23.63
2018-06-15T16:05:11.592Z,23.51
2018-06-15T16:06:11.485Z,23.66
2018-06-15T16:08:04.355Z,23.66
2018-06-15T16:09:04.250Z,23.61
2018-06-15T16:10:57.081Z,23.22
2018-06-15T16:11:56.991Z,23.15
2018-06-15T16:13:49.844Z,22.95
2018-06-15T16:14:49.744Z,23.01
2018-06-15T16:16:42.617Z,23.06
2018-06-15T16:17:42.484Z,23.06
2018-06-15T16:19:35.390Z,23.21
2018-06-15T16:20:35.261Z,23.14
2018-06-15T16:22:28.081Z,23.08
2018-06-15T16:23:27.989Z,23.28
2018-06-15T16:25:21.355Z,22.98
2018-06-15T16:26:21.252Z,23.03
2018-06-15T16:28:14.110Z,23.23
2018-06-15T16:29:14.004Z,23.60
2018-06-15T16:31:06.840Z,25.08
2018-06-15T16:32:06.748Z,25.49
2018-06-15T16:33:59.611Z,25.78
2018-06-15T16:34:59.510Z,26.05
2018-06-15T16:36:52.329Z,26.41
2018-06-15T16:37:52.286Z,26.94
2018-06-15T16:39:45.131Z,28.17
2018-06-15T16:40:45.048Z,28.69
2018-06-15T16:42:37.832Z,28.52
2018-06-15T16:43:37.771Z,27.90
2018-06-15T16:45:30.595Z,27.31
2018-06-15T16:46:30.516Z,26.88
2018-06-15T16:48:23.378Z,26.21
2018-06-15T16:49:23.247Z,25.88
2018-06-15T16:51:16.090Z,25.41
2018-06-15T16:52:15.994Z,25.18
2018-06-15T16:54:08.860Z,24.84
2018-06-15T16:55:08.761Z,24.45
2018-06-15T16:57:01.575Z,24.06
2018-06-15T16:58:01.509Z,23.96
2018-06-15T16:59:54.381Z,23.79
2018-06-15T17:00:54.259Z,23.74
2018-06-15T17:02:47.113Z,23.73
2018-06-15T17:03:46.994Z,23.78
2018-06-15T17:05:39.877Z,23.89
2018-06-15T17:06:39.750Z,23.70
2018-06-15T17:08:32.611Z,23.85
2018-06-15T17:09:32.589Z,23.85
2018-06-15T17:11:25.323Z,24.28
2018-06-15T17:12:25.255Z,25.23
2018-06-15T17:14:18.094Z,26.53
2018-06-15T17:15:18.023Z,26.89
2018-06-15T17:17:10.828Z,26.56
2018-06-15T17:18:10.824Z,26.23
2018-06-15T17:20:03.653Z,25.89
2018-06-15T17:21:03.538Z,25.81
2018-06-15T17:22:56.361Z,25.45
2018-06-15T17:23:56.263Z,25.31
2018-06-15T17:25:49.618Z,25.09
2018-06-15T17:26:49.544Z,24.94
2018-06-15T17:28:42.369Z,24.66
2018-06-15T17:29:42.270Z,24.51
2018-06-15T17:31:35.091Z,24.10
2018-06-15T17:32:35.003Z,23.94
2018-06-15T17:34:28.915Z,23.88
2018-06-15T17:35:28.797Z,23.79
2018-06-15T17:37:21.610Z,23.74
2018-06-15T17:38:21.529Z,23.64
2018-06-15T17:40:16.318Z,23.44
2018-06-15T17:41:16.217Z,23.29
2018-06-15T17:43:09.974Z,23.06
2018-06-15T17:44:09.884Z,22.93
2018-06-15T17:46:02.735Z,23.08
2018-06-15T17:47:02.661Z,23.04
2018-06-15T17:48:55.488Z,22.99
2018-06-15T17:49:55.401Z,22.96
2018-06-15T17:51:48.258Z,22.93
2018-06-15T17:52:48.149Z,22.89
2018-06-15T17:54:41.035Z,22.77
2018-06-15T17:55:40.904Z,22.78
2018-06-15T17:57:33.722Z,22.78
2018-06-15T17:58:33.645Z,22.86
2018-06-15T18:00:26.498Z,22.85
2018-06-15T18:01:26.394Z,22.83
2018-06-15T18:03:19.247Z,22.86
2018-06-15T18:04:19.192Z,22.83
2018-06-15T18:06:11.986Z,22.74
2018-06-15T18:07:11.957Z,22.53
2018-06-15T18:09:04.744Z,22.48
2018-06-15T18:10:04.645Z,22.43
2018-06-15T18:11:57.491Z,22.49
2018-06-15T18:12:57.414Z,22.33
2018-06-15T18:14:50.254Z,22.30
2018-06-15T18:15:50.133Z,22.28
2018-06-15T18:17:43.525Z,22.11
2018-06-15T18:18:42.924Z,22.04
2018-06-15T18:20:35.743Z,21.96
2018-06-15T18:21:35.648Z,21.84
2018-06-15T18:23:28.470Z,21.91
2018-06-15T18:24:28.385Z,21.81
2018-06-15T18:26:21.236Z,21.81
2018-06-15T18:27:21.154Z,21.84
2018-06-15T18:29:14.007Z,21.75
2018-06-15T18:30:13.882Z,21.78
2018-06-15T18:32:07.148Z,21.75